Time;durP1;ratioP1;P1;durP2;ratioP2;P2;SDS_P1;SDS_P2;PMS_P1;PMS_P2;Temp;Humidity;BMP_temperature;BMP_pressure;BME280_temperature;BME280_humidity;BME280_pressure;Samples;Min_cycle;Max_cycle;Signal;HPM_P1;HPM_P2
2023/03/02 00:00:52;;;;;;;;;;;;;;;;;;4984831;28;19921;-70
2023/03/02 00:03:18;;;;;;;;;;;;;;;;;;4984894;28;19929;-69
2023/03/02 00:05:45;;;;;;;;;;;;;;;;;;4989975;28;20271;-71
2023/03/02 00:08:11;;;;;;;;;;;;;;;;;;4966154;28;20460;-69
2023/03/02 00:10:37;;;;;;;;;;;;;;;;;;4962763;28;19925;-69
2023/03/02 00:13:02;;;;;;;;;;;;;;;;;;4974049;28;19939;-69
2023/03/02 00:15:28;;;;;;;;;;;;;;;;;;4976748;28;20630;-69
2023/03/02 00:17:53;;;;;;;;;;;;;;;;;;4991213;28;19925;-69
2023/03/02 00:20:18;;;;;;;;;;;;;;;;;;4958005;28;21505;-70
2023/03/02 00:22:44;;;;;;;;;;;;;;;;;;4973276;28;20336;-68
2023/03/02 00:25:10;;;;;;;;;;;;;;;;;;4970733;28;19921;-70
2023/03/02 00:27:35;;;;;;;;;;;;;;;;;;4953107;28;20081;-69
2023/03/02 00:30:00;;;;;;;;;;;;;;;;;;4969982;28;20014;-67
2023/03/02 00:32:25;;;;;;;;;;;;;;;;;;4989220;28;20280;-68
2023/03/02 00:34:51;;;;;;;;;;;;;;;;;;4955062;28;19917;-68
2023/03/02 00:37:16;;;;;;;;;;;;;;;;;;4990858;28;19925;-68
2023/03/02 00:39:41;;;;;;;;;;;;;;;;;;4972472;28;19917;-68
2023/03/02 00:42:07;;;;;;;;;;;;;;;;;;4960663;28;19972;-70
2023/03/02 00:44:35;;;;;;;;;;;;;;;;;;4993197;28;19932;-68
2023/03/02 00:47:00;;;;;;;;;;;;;;;;;;4955519;28;19932;-68
2023/03/02 00:49:25;;;;;;;;;;;;;;;;;;4992606;28;19921;-68
2023/03/02 00:51:51;;;;;;;;;;;;;;;;;;4973499;28;20577;-68
2023/03/02 00:54:16;;;;;;;;;;;;;;;;;;4990264;28;20191;-68
2023/03/02 00:56:41;;;;;;;;;;;;;;;;;;4976961;28;19921;-68
2023/03/02 00:59:09;;;;;;;;;;;;;;;;;;4977327;28;19975;-68
2023/03/02 01:01:35;;;;;;;;;;;;;;;;;;4976124;28;20162;-67
2023/03/02 01:04:00;;;;;;;;;;;;;;;;;;4977205;28;20339;-68
2023/03/02 01:06:25;;;;;;;;;;;;;;;;;;4972844;28;20412;-68
2023/03/02 01:08:51;;;;;;;;;;;;;;;;;;4979032;28;19921;-68
2023/03/02 01:11:18;;;;;;;;;;;;;;;;;;4974309;28;20448;-68
2023/03/02 01:13:44;;;;;;;;;;;;;;;;;;4991633;28;20157;-68
2023/03/02 01:16:09;;;;;;;;;;;;;;;;;;4974048;28;19928;-68
2023/03/02 01:18:37;;;;;;;;;;;;;;;;;;4994035;28;19987;-71
2023/03/02 01:21:03;;;;;;;;;;;;;;;;;;5007926;28;20277;-68
2023/03/02 01:23:28;;;;;;;;;;;;;;;;;;4991621;28;19936;-68
2023/03/02 01:25:54;;;;;;;;;;;;;;;;;;5007449;28;19959;-69
2023/03/02 01:28:19;;;;;;;;;;;;;;;;;;5009926;28;20846;-68
2023/03/02 01:30:45;;;;;;;;;;;;;;;;;;4990815;28;20539;-67
2023/03/02 01:33:10;;;;;;;;;;;;;;;;;;4991434;28;20079;-68
2023/03/02 01:35:55;;;;;;;;;;;;;;;;;;5011256;28;19932;-68
2023/03/02 01:38:21;;;;;;;;;;;;;;;;;;4986478;28;20077;-68
2023/03/02 01:40:46;;;;;;;;;;;;;;;;;;4988806;28;20406;-69
2023/03/02 01:43:15;;;;;;;;;;;;;;;;;;5006078;28;20330;-68
2023/03/02 01:45:41;;;;;;;;;;;;;;;;;;5010281;28;19925;-68
2023/03/02 01:48:08;;;;;;;;;;;;;;;;;;5007752;28;19974;-68
2023/03/02 01:50:34;;;;;;;;;;;;;;;;;;4990181;28;21830;-69
2023/03/02 01:52:59;;;;;;;;;;;;;;;;;;4989156;28;20375;-69
2023/03/02 01:55:27;;;;;;;;;;;;;;;;;;4988340;28;19920;-69
2023/03/02 01:57:54;;;;;;;;;;;;;;;;;;5006647;28;19936;-70
2023/03/02 02:00:20;;;;;;;;;;;;;;;;;;4987838;28;20522;-69
2023/03/02 02:02:46;;;;;;;;;;;;;;;;;;4972421;28;20288;-69
2023/03/02 02:05:11;;;;;;;;;;;;;;;;;;4989698;28;19929;-69
2023/03/02 02:07:37;;;;;;;;;;;;;;;;;;4989635;28;20039;-69
2023/03/02 02:10:02;;;;;;;;;;;;;;;;;;5004102;28;20590;-69
2023/03/02 02:12:27;;;;;;;;;;;;;;;;;;4974322;28;20008;-68
2023/03/02 02:14:54;;;;;;;;;;;;;;;;;;5011862;28;19921;-69
2023/03/02 02:17:20;;;;;;;;;;;;;;;;;;4984014;28;19921;-69
2023/03/02 02:19:45;;;;;;;;;;;;;;;;;;4998559;28;20238;-69
2023/03/02 02:22:11;;;;;;;;;;;;;;;;;;5008903;28;19923;-69
2023/03/02 02:24:37;;;;;;;;;;;;;;;;;;5009974;28;19925;-68
2023/03/02 02:27:02;;;;;;;;;;;;;;;;;;5008068;28;20514;-68
2023/03/02 02:29:27;;;;;;;;;;;;;;;;;;4992706;28;20338;-69
2023/03/02 02:31:53;;;;;;;;;;;;;;;;;;4986314;28;20324;-67
2023/03/02 02:34:21;;;;;;;;;;;;;;;;;;5010127;28;19921;-70
2023/03/02 02:36:46;;;;;;;;;;;;;;;;;;4990042;28;21043;-69
2023/03/02 02:39:11;;;;;;;;;;;;;;;;;;5008889;28;19932;-70
2023/03/02 02:41:37;;;;;;;;;;;;;;;;;;4989680;28;19921;-70
2023/03/02 02:44:02;;;;;;;;;;;;;;;;;;4988997;28;19960;-70
2023/03/02 02:46:30;;;;;;;;;;;;;;;;;;4972864;28;20092;-70
2023/03/02 02:48:55;;;;;;;;;;;;;;;;;;4989820;28;19921;-69
2023/03/02 02:51:20;;;;;;;;;;;;;;;;;;4971543;28;19920;-70
2023/03/02 02:53:48;;;;;;;;;;;;;;;;;;4990189;28;19928;-69
2023/03/02 02:56:13;;;;;;;;;;;;;;;;;;5007631;28;19928;-70
2023/03/02 02:58:41;;;;;;;;;;;;;;;;;;4968894;28;20299;-70
2023/03/02 03:01:07;;;;;;;;;;;;;;;;;;4972185;28;20411;-69
2023/03/02 03:03:32;;;;;;;;;;;;;;;;;;4989726;28;19959;-70
2023/03/02 03:05:59;;;;;;;;;;;;;;;;;;4989901;28;19956;-70
2023/03/02 03:08:29;;;;;;;;;;;;;;;;;;4989558;28;20012;-68
2023/03/02 03:10:56;;;;;;;;;;;;;;;;;;5004086;28;19925;-69
2023/03/02 03:13:24;;;;;;;;;;;;;;;;;;4988774;28;20049;-69
2023/03/02 03:15:50;;;;;;;;;;;;;;;;;;4962604;28;19925;-69
2023/03/02 03:18:15;;;;;;;;;;;;;;;;;;5007712;28;19970;-68
2023/03/02 03:20:40;;;;;;;;;;;;;;;;;;4991027;28;19921;-71
2023/03/02 03:23:06;;;;;;;;;;;;;;;;;;5008205;28;19921;-68
2023/03/02 03:25:33;;;;;;;;;;;;;;;;;;5004159;28;20416;-69
2023/03/02 03:28:02;;;;;;;;;;;;;;;;;;5007067;28;21284;-69
2023/03/02 03:30:28;;;;;;;;;;;;;;;;;;5007853;28;19948;-69
2023/03/02 03:32:53;;;;;;;;;;;;;;;;;;4983572;28;20483;-69
2023/03/02 03:35:18;;;;;;;;;;;;;;;;;;4991158;28;19917;-69
2023/03/02 03:37:44;;;;;;;;;;;;;;;;;;5004800;28;19933;-68
2023/03/02 03:40:10;;;;;;;;;;;;;;;;;;4971460;28;20381;-69
2023/03/02 03:45:30;;;;;;;;;;;;;;;;;;5007110;28;19995;-68
2023/03/02 03:47:55;;;;;;;;;;;;;;;;;;4970344;28;20426;-69
2023/03/02 03:50:21;;;;;;;;;;;;;;;;;;5006122;28;19921;-69
2023/03/02 03:52:46;;;;;;;;;;;;;;;;;;5010099;28;19917;-69
2023/03/02 03:55:12;;;;;;;;;;;;;;;;;;4987718;28;19921;-69
2023/03/02 04:00:53;;;;;;;;;;;;;;;;;;5007860;28;19923;-69
2023/03/02 04:03:18;;;;;;;;;;;;;;;;;;5000755;28;20047;-69
2023/03/02 04:05:44;;;;;;;;;;;;;;;;;;4989315;28;20269;-69
2023/03/02 04:08:09;;;;;;;;;;;;;;;;;;4988320;28;19948;-69
2023/03/02 04:10:34;;;;;;;;;;;;;;;;;;4987129;28;19970;-69
2023/03/02 04:13:00;;;;;;;;;;;;;;;;;;5011043;28;20065;-69
2023/03/02 04:15:28;;;;;;;;;;;;;;;;;;5003823;28;20023;-69
2023/03/02 04:17:53;;;;;;;;;;;;;;;;;;4987697;28;19921;-68
2023/03/02 04:20:18;;;;;;;;;;;;;;;;;;5006080;28;19921;-69
2023/03/02 04:22:44;;;;;;;;;;;;;;;;;;5005362;28;19921;-68
2023/03/02 04:25:09;;;;;;;;;;;;;;;;;;4974256;28;19925;-68
2023/03/02 04:27:34;;;;;;;;;;;;;;;;;;4975550;28;20044;-70
2023/03/02 04:30:00;;;;;;;;;;;;;;;;;;5008630;28;19936;-69
2023/03/02 04:32:25;;;;;;;;;;;;;;;;;;5003648;28;21343;-68
2023/03/02 04:34:51;;;;;;;;;;;;;;;;;;4991147;28;19974;-68
2023/03/02 04:37:16;;;;;;;;;;;;;;;;;;5008338;28;19921;-68
2023/03/02 04:39:46;;;;;;;;;;;;;;;;;;5012325;28;20496;-69
2023/03/02 04:42:11;;;;;;;;;;;;;;;;;;4992950;28;19952;-69
2023/03/02 04:44:36;;;;;;;;;;;;;;;;;;4975793;28;19921;-68
2023/03/02 04:47:02;;;;;;;;;;;;;;;;;;4975238;28;20578;-68
2023/03/02 04:49:27;;;;;;;;;;;;;;;;;;4973569;28;19936;-69
2023/03/02 04:51:53;;;;;;;;;;;;;;;;;;4993039;28;19979;-68
2023/03/02 04:54:18;;;;;;;;;;;;;;;;;;5005808;28;20404;-68
2023/03/02 04:56:47;;;;;;;;;;;;;;;;;;5013501;28;19928;-68
2023/03/02 04:59:12;;;;;;;;;;;;;;;;;;4974378;28;19921;-69
2023/03/02 05:01:38;;;;;;;;;;;;;;;;;;5005822;28;19967;-68
2023/03/02 05:04:03;;;;;;;;;;;;;;;;;;5007605;28;19928;-68
2023/03/02 05:06:28;;;;;;;;;;;;;;;;;;5002591;28;19975;-69
2023/03/02 05:08:54;;;;;;;;;;;;;;;;;;4985931;28;19921;-68
2023/03/02 05:11:25;;;;;;;;;;;;;;;;;;5006426;28;19917;-68
2023/03/02 05:13:50;;;;;;;;;;;;;;;;;;4988573;28;19921;-70
2023/03/02 05:16:15;;;;;;;;;;;;;;;;;;5001180;28;19994;-69
2023/03/02 05:18:41;;;;;;;;;;;;;;;;;;5007174;28;19924;-68
2023/03/02 05:21:06;;;;;;;;;;;;;;;;;;5001458;28;20261;-68
2023/03/02 05:23:32;;;;;;;;;;;;;;;;;;5003166;28;19917;-68
2023/03/02 05:25:58;;;;;;;;;;;;;;;;;;5007722;28;20059;-69
2023/03/02 05:28:23;;;;;;;;;;;;;;;;;;4984825;28;19959;-69
2023/03/02 05:30:48;;;;;;;;;;;;;;;;;;5006808;28;20015;-69
2023/03/02 05:33:14;;;;;;;;;;;;;;;;;;5005554;28;20024;-68
2023/03/02 05:35:39;;;;;;;;;;;;;;;;;;4986726;28;20269;-69
2023/03/02 05:38:04;;;;;;;;;;;;;;;;;;4986775;28;19960;-69
2023/03/02 05:40:30;;;;;;;;;;;;;;;;;;4983530;28;20029;-69
2023/03/02 05:42:55;;;;;;;;;;;;;;;;;;5004139;28;19947;-69
2023/03/02 05:45:23;;;;;;;;;;;;;;;;;;5001460;28;19929;-69
2023/03/02 05:47:48;;;;;;;;;;;;;;;;;;4968881;28;19924;-70
2023/03/02 05:50:13;;;;;;;;;;;;;;;;;;4991069;28;20901;-70
2023/03/02 05:52:41;;;;;;;;;;;;;;;;;;5003573;28;19921;-70
2023/03/02 05:55:06;;;;;;;;;;;;;;;;;;5001754;28;20914;-70
2023/03/02 05:57:32;;;;;;;;;;;;;;;;;;5000263;28;19946;-70
2023/03/02 05:59:58;;;;;;;;;;;;;;;;;;4985527;28;20265;-70
2023/03/02 06:02:23;;;;;;;;;;;;;;;;;;4994168;28;19928;-70
2023/03/02 06:04:48;;;;;;;;;;;;;;;;;;4969561;28;20224;-71
2023/03/02 06:07:14;;;;;;;;;;;;;;;;;;5003990;28;19921;-70
2023/03/02 06:09:39;;;;;;;;;;;;;;;;;;4967307;28;19979;-70
2023/03/02 06:12:04;;;;;;;;;;;;;;;;;;5003876;28;20262;-69
2023/03/02 06:14:30;;;;;;;;;;;;;;;;;;4985943;28;19960;-70
2023/03/02 06:16:55;;;;;;;;;;;;;;;;;;5000022;28;19917;-69
2023/03/02 06:19:20;;;;;;;;;;;;;;;;;;5005542;28;19921;-69
2023/03/02 06:21:46;;;;;;;;;;;;;;;;;;4987782;28;20483;-68
2023/03/02 06:24:11;;;;;;;;;;;;;;;;;;5006206;28;19940;-69
2023/03/02 06:26:37;;;;;;;;;;;;;;;;;;4985800;28;20440;-69
2023/03/02 06:29:04;;;;;;;;;;;;;;;;;;4990220;28;19932;-69
2023/03/02 06:31:32;;;;;;;;;;;;;;;;;;4987516;28;19962;-71
2023/03/02 06:33:57;;;;;;;;;;;;;;;;;;4969108;28;20007;-69
2023/03/02 06:36:22;;;;;;;;;;;;;;;;;;4985438;28;20012;-69
2023/03/02 06:38:48;;;;;;;;;;;;;;;;;;5004673;28;19982;-69
2023/03/02 06:41:13;;;;;;;;;;;;;;;;;;5005707;28;20529;-69
2023/03/02 06:43:39;;;;;;;;;;;;;;;;;;5000534;28;20679;-69
2023/03/02 06:46:04;;;;;;;;;;;;;;;;;;4986005;28;19966;-69
2023/03/02 06:48:32;;;;;;;;;;;;;;;;;;4983389;28;20163;-69
2023/03/02 06:50:57;;;;;;;;;;;;;;;;;;5009254;28;19972;-68
2023/03/02 06:53:22;;;;;;;;;;;;;;;;;;4985884;28;20019;-68
2023/03/02 06:55:48;;;;;;;;;;;;;;;;;;4990595;28;20012;-69
2023/03/02 07:01:34;;;;;;;;;;;;;;;;;;5006175;28;19924;-69
2023/03/02 07:03:59;;;;;;;;;;;;;;;;;;4973047;28;19931;-70
2023/03/02 07:06:24;;;;;;;;;;;;;;;;;;5007350;28;21589;-69
2023/03/02 07:08:50;;;;;;;;;;;;;;;;;;4987400;28;19917;-69
2023/03/02 07:11:15;;;;;;;;;;;;;;;;;;4982223;28;21370;-69
2023/03/02 07:13:41;;;;;;;;;;;;;;;;;;5003115;28;20300;-69
2023/03/02 07:16:06;;;;;;;;;;;;;;;;;;5006531;28;19917;-69
2023/03/02 07:18:31;;;;;;;;;;;;;;;;;;4987230;28;20652;-68
2023/03/02 07:20:57;;;;;;;;;;;;;;;;;;4990254;28;19917;-69
2023/03/02 07:23:22;;;;;;;;;;;;;;;;;;5004064;28;19956;-70
2023/03/02 07:25:47;;;;;;;;;;;;;;;;;;4986527;28;20457;-71
2023/03/02 07:28:13;;;;;;;;;;;;;;;;;;4973820;28;20833;-70
2023/03/02 07:30:38;;;;;;;;;;;;;;;;;;5009234;28;20040;-69
2023/03/02 07:33:03;;;;;;;;;;;;;;;;;;4987307;28;21089;-70
2023/03/02 07:35:29;;;;;;;;;;;;;;;;;;4973429;28;20134;-70
2023/03/02 07:37:54;;;;;;;;;;;;;;;;;;4988552;28;19921;-70
2023/03/02 07:40:20;;;;;;;;;;;;;;;;;;4989763;28;19929;-70
2023/03/02 07:42:45;;;;;;;;;;;;;;;;;;4970846;28;20221;-68
2023/03/02 07:45:10;;;;;;;;;;;;;;;;;;4972795;28;19928;-68
2023/03/02 07:47:36;;;;;;;;;;;;;;;;;;4985302;28;19921;-68
2023/03/02 07:50:01;;;;;;;;;;;;;;;;;;4976391;28;20074;-68
2023/03/02 07:52:26;;;;;;;;;;;;;;;;;;5006222;28;20700;-69
2023/03/02 07:54:52;;;;;;;;;;;;;;;;;;5007104;28;19924;-68
2023/03/02 07:57:17;;;;;;;;;;;;;;;;;;5000770;28;19932;-68
2023/03/02 07:59:42;;;;;;;;;;;;;;;;;;5001137;28;19925;-68
2023/03/02 08:02:07;;;;;;;;;;;;;;;;;;5003750;28;20009;-68
2023/03/02 08:04:33;;;;;;;;;;;;;;;;;;4988158;28;19953;-68
2023/03/02 08:06:58;;;;;;;;;;;;;;;;;;5003775;28;19918;-68
2023/03/02 08:09:24;;;;;;;;;;;;;;;;;;4988852;28;20082;-68
2023/03/02 08:11:49;;;;;;;;;;;;;;;;;;4980101;28;19944;-68
2023/03/02 08:14:14;;;;;;;;;;;;;;;;;;5008469;28;20852;-68
2023/03/02 08:16:40;;;;;;;;;;;;;;;;;;5006986;28;20791;-68
2023/03/02 08:19:05;;;;;;;;;;;;;;;;;;4987449;28;19921;-68
2023/03/02 08:21:32;;;;;;;;;;;;;;;;;;4988095;28;19921;-68
2023/03/02 08:23:57;;;;;;;;;;;;;;;;;;5002813;28;20479;-68
2023/03/02 08:26:23;;;;;;;;;;;;;;;;;;5007393;28;19921;-69
2023/03/02 08:28:48;;;;;;;;;;;;;;;;;;5003398;28;19979;-68
2023/03/02 08:31:14;;;;;;;;;;;;;;;;;;4976454;28;19921;-70
2023/03/02 08:33:39;;;;;;;;;;;;;;;;;;4987530;28;20558;-69
2023/03/02 08:36:05;;;;;;;;;;;;;;;;;;4982273;28;19928;-70
2023/03/02 08:38:30;;;;;;;;;;;;;;;;;;5004603;28;20480;-70
2023/03/02 08:40:56;;;;;;;;;;;;;;;;;;5002461;28;19963;-69
2023/03/02 08:43:21;;;;;;;;;;;;;;;;;;4988192;28;20280;-69
2023/03/02 08:45:46;;;;;;;;;;;;;;;;;;5004019;28;19925;-69
2023/03/02 08:48:11;;;;;;;;;;;;;;;;;;5004669;28;20364;-69
2023/03/02 08:50:37;;;;;;;;;;;;;;;;;;5003091;28;19929;-69
2023/03/02 08:53:02;;;;;;;;;;;;;;;;;;4998978;28;20384;-69
2023/03/02 08:55:28;;;;;;;;;;;;;;;;;;5003406;28;20631;-69
2023/03/02 08:57:56;;;;;;;;;;;;;;;;;;4981987;28;19921;-69
2023/03/02 09:00:22;;;;;;;;;;;;;;;;;;5005115;28;21346;-68
2023/03/02 09:02:47;;;;;;;;;;;;;;;;;;4983816;28;19931;-68
2023/03/02 09:05:13;;;;;;;;;;;;;;;;;;4995276;28;20396;-69
2023/03/02 09:07:38;;;;;;;;;;;;;;;;;;5003915;28;20031;-69
2023/03/02 09:10:04;;;;;;;;;;;;;;;;;;5002444;28;20347;-70
2023/03/02 09:12:29;;;;;;;;;;;;;;;;;;4988052;28;19921;-70
2023/03/02 09:14:55;;;;;;;;;;;;;;;;;;5003466;28;21112;-68
2023/03/02 09:17:20;;;;;;;;;;;;;;;;;;5006140;28;19986;-68
2023/03/02 09:19:48;;;;;;;;;;;;;;;;;;5008707;28;19980;-68
2023/03/02 09:22:13;;;;;;;;;;;;;;;;;;5006434;28;20032;-69
2023/03/02 09:24:39;;;;;;;;;;;;;;;;;;4990504;28;20176;-69
2023/03/02 09:27:04;;;;;;;;;;;;;;;;;;5009230;28;20150;-70
2023/03/02 09:29:30;;;;;;;;;;;;;;;;;;4990200;28;19921;-70
2023/03/02 09:31:55;;;;;;;;;;;;;;;;;;4977412;28;20313;-68
2023/03/02 09:34:20;;;;;;;;;;;;;;;;;;5006276;28;20863;-69
2023/03/02 09:36:49;;;;;;;;;;;;;;;;;;4969783;28;19917;-69
2023/03/02 09:39:18;;;;;;;;;;;;;;;;;;5010366;28;19975;-69
2023/03/02 09:41:44;;;;;;;;;;;;;;;;;;4988080;28;20055;-68
2023/03/02 09:44:09;;;;;;;;;;;;;;;;;;5006512;28;20014;-69
2023/03/02 09:46:34;;;;;;;;;;;;;;;;;;5008657;28;19940;-69
2023/03/02 09:48:59;;;;;;;;;;;;;;;;;;5004827;28;19916;-68
2023/03/02 09:51:25;;;;;;;;;;;;;;;;;;4987547;28;19920;-68
2023/03/02 09:53:51;;;;;;;;;;;;;;;;;;5008702;28;19967;-69
2023/03/02 09:56:16;;;;;;;;;;;;;;;;;;4989131;28;20813;-69
2023/03/02 09:58:42;;;;;;;;;;;;;;;;;;5006695;28;19917;-70
2023/03/02 10:01:07;;;;;;;;;;;;;;;;;;5007779;28;19921;-69
2023/03/02 10:03:32;;;;;;;;;;;;;;;;;;4999637;28;19921;-69
2023/03/02 10:05:58;;;;;;;;;;;;;;;;;;5006170;28;19925;-69
2023/03/02 10:08:23;;;;;;;;;;;;;;;;;;5007996;28;20176;-69
2023/03/02 10:10:49;;;;;;;;;;;;;;;;;;4987745;28;19925;-70
2023/03/02 10:13:14;;;;;;;;;;;;;;;;;;4991578;28;19921;-70
2023/03/02 10:15:39;;;;;;;;;;;;;;;;;;4988162;28;20037;-69
2023/03/02 10:18:05;;;;;;;;;;;;;;;;;;5004757;28;19921;-69
2023/03/02 10:20:30;;;;;;;;;;;;;;;;;;4999767;28;20390;-69
2023/03/02 10:22:55;;;;;;;;;;;;;;;;;;5003612;28;20443;-69
2023/03/02 10:25:21;;;;;;;;;;;;;;;;;;4990146;28;19928;-69
2023/03/02 10:27:46;;;;;;;;;;;;;;;;;;5010562;28;20105;-69
2023/03/02 10:30:11;;;;;;;;;;;;;;;;;;4984479;28;20485;-68
2023/03/02 10:32:37;;;;;;;;;;;;;;;;;;5003618;28;19917;-69
2023/03/02 10:35:02;;;;;;;;;;;;;;;;;;5007761;28;19932;-68
2023/03/02 10:37:27;;;;;;;;;;;;;;;;;;5010348;28;20400;-68
2023/03/02 10:39:53;;;;;;;;;;;;;;;;;;4991455;28;20016;-68
2023/03/02 10:42:18;;;;;;;;;;;;;;;;;;4973636;28;19947;-68
2023/03/02 10:44:44;;;;;;;;;;;;;;;;;;4991030;28;19921;-68
2023/03/02 10:47:09;;;;;;;;;;;;;;;;;;4973445;28;19921;-69
2023/03/02 10:49:35;;;;;;;;;;;;;;;;;;4990926;28;19939;-69
2023/03/02 10:52:00;;;;;;;;;;;;;;;;;;5006069;28;19921;-70
2023/03/02 10:54:27;;;;;;;;;;;;;;;;;;4990114;28;19952;-68
2023/03/02 10:56:53;;;;;;;;;;;;;;;;;;4991026;28;19966;-70
2023/03/02 10:59:18;;;;;;;;;;;;;;;;;;4988806;28;21617;-70
2023/03/02 11:01:44;;;;;;;;;;;;;;;;;;5008411;28;20337;-70
2023/03/02 11:04:09;;;;;;;;;;;;;;;;;;5009501;28;20017;-71
2023/03/02 11:06:35;;;;;;;;;;;;;;;;;;5004243;28;20344;-69
2023/03/02 11:09:00;;;;;;;;;;;;;;;;;;4971057;28;20024;-69
2023/03/02 11:11:25;;;;;;;;;;;;;;;;;;5000850;28;19925;-70
2023/03/02 11:13:51;;;;;;;;;;;;;;;;;;5010031;28;19917;-70
2023/03/02 11:16:16;;;;;;;;;;;;;;;;;;5008709;28;19921;-69
2023/03/02 11:18:41;;;;;;;;;;;;;;;;;;4987560;28;19928;-71
2023/03/02 11:21:07;;;;;;;;;;;;;;;;;;4987854;28;20008;-69
2023/03/02 11:23:32;;;;;;;;;;;;;;;;;;4988233;28;19946;-71
2023/03/02 11:25:58;;;;;;;;;;;;;;;;;;5005715;28;19929;-72
2023/03/02 11:28:24;;;;;;;;;;;;;;;;;;4968790;28;19971;-71
2023/03/02 11:30:50;;;;;;;;;;;;;;;;;;5007429;28;20590;-70
2023/03/02 11:33:15;;;;;;;;;;;;;;;;;;4963776;28;20258;-71
2023/03/02 11:35:41;;;;;;;;;;;;;;;;;;4970328;28;20415;-70
2023/03/02 11:38:06;;;;;;;;;;;;;;;;;;4993557;28;19921;-70
2023/03/02 11:40:31;;;;;;;;;;;;;;;;;;4986024;28;19921;-72
2023/03/02 11:42:57;;;;;;;;;;;;;;;;;;5004630;28;20422;-71
2023/03/02 11:45:22;;;;;;;;;;;;;;;;;;4983987;28;21761;-71
2023/03/02 11:47:47;;;;;;;;;;;;;;;;;;4967563;28;20028;-71
2023/03/02 11:50:13;;;;;;;;;;;;;;;;;;4984964;28;20031;-71
2023/03/02 11:52:38;;;;;;;;;;;;;;;;;;4987658;28;19921;-71
2023/03/02 11:55:03;;;;;;;;;;;;;;;;;;4986158;28;19933;-70
2023/03/02 11:57:29;;;;;;;;;;;;;;;;;;4982907;28;20019;-73
2023/03/02 11:59:54;;;;;;;;;;;;;;;;;;4969261;28;19980;-71
2023/03/02 12:02:19;;;;;;;;;;;;;;;;;;5003748;28;20055;-70
2023/03/02 12:04:45;;;;;;;;;;;;;;;;;;5004142;28;19958;-70
2023/03/02 12:07:10;;;;;;;;;;;;;;;;;;5008916;28;20317;-71
2023/03/02 12:09:36;;;;;;;;;;;;;;;;;;5000291;28;20463;-70
2023/03/02 12:12:01;;;;;;;;;;;;;;;;;;5001716;28;19921;-73
2023/03/02 12:14:29;;;;;;;;;;;;;;;;;;5006954;28;20254;-71
2023/03/02 12:16:54;;;;;;;;;;;;;;;;;;4980042;28;20691;-69
2023/03/02 12:19:20;;;;;;;;;;;;;;;;;;4996937;28;20292;-69
2023/03/02 12:21:45;;;;;;;;;;;;;;;;;;5005839;28;19951;-71
2023/03/02 12:24:10;;;;;;;;;;;;;;;;;;4988237;28;20368;-73
2023/03/02 12:26:35;;;;;;;;;;;;;;;;;;4988833;28;19952;-70
2023/03/02 12:29:01;;;;;;;;;;;;;;;;;;5008082;28;20055;-72
2023/03/02 12:31:26;;;;;;;;;;;;;;;;;;4981588;28;19917;-69
2023/03/02 12:33:51;;;;;;;;;;;;;;;;;;5004727;28;19920;-72
2023/03/02 12:36:17;;;;;;;;;;;;;;;;;;4969771;28;19975;-73
2023/03/02 12:38:46;;;;;;;;;;;;;;;;;;4989473;28;20065;-71
2023/03/02 12:41:12;;;;;;;;;;;;;;;;;;4985990;28;19917;-71
2023/03/02 12:43:37;;;;;;;;;;;;;;;;;;4984554;28;19974;-71
2023/03/02 12:46:04;;;;;;;;;;;;;;;;;;4986926;28;20190;-75
2023/03/02 12:48:30;;;;;;;;;;;;;;;;;;5007177;28;21134;-71
2023/03/02 12:50:55;;;;;;;;;;;;;;;;;;4989420;28;19921;-71
2023/03/02 12:53:20;;;;;;;;;;;;;;;;;;5005253;28;20303;-71
2023/03/02 12:55:45;;;;;;;;;;;;;;;;;;5005684;28;19921;-71
2023/03/02 12:58:11;;;;;;;;;;;;;;;;;;5006998;28;20015;-73
2023/03/02 13:00:36;;;;;;;;;;;;;;;;;;5007464;28;20063;-73
2023/03/02 13:03:05;;;;;;;;;;;;;;;;;;5005106;28;19968;-73
2023/03/02 13:05:31;;;;;;;;;;;;;;;;;;4974990;28;19921;-72
2023/03/02 13:07:56;;;;;;;;;;;;;;;;;;5009872;28;19999;-71
2023/03/02 13:10:22;;;;;;;;;;;;;;;;;;4980707;28;19925;-71
2023/03/02 13:12:47;;;;;;;;;;;;;;;;;;5011232;28;19921;-72
2023/03/02 13:15:12;;;;;;;;;;;;;;;;;;5009871;28;20074;-72
2023/03/02 13:17:37;;;;;;;;;;;;;;;;;;5009560;28;20078;-71
2023/03/02 13:20:03;;;;;;;;;;;;;;;;;;5005246;28;20400;-72
2023/03/02 13:22:28;;;;;;;;;;;;;;;;;;4970883;28;20308;-72
2023/03/02 13:24:53;;;;;;;;;;;;;;;;;;4981161;28;19985;-71
2023/03/02 13:27:19;;;;;;;;;;;;;;;;;;5005828;28;19971;-70
2023/03/02 13:29:44;;;;;;;;;;;;;;;;;;5011860;28;19921;-71
2023/03/02 13:32:09;;;;;;;;;;;;;;;;;;4983897;28;19920;-71
2023/03/02 13:34:35;;;;;;;;;;;;;;;;;;5002305;28;20196;-70
2023/03/02 13:37:00;;;;;;;;;;;;;;;;;;4988138;28;19925;-71
2023/03/02 13:39:25;;;;;;;;;;;;;;;;;;4999755;28;20400;-71
2023/03/02 13:41:51;;;;;;;;;;;;;;;;;;5002853;28;19932;-71
2023/03/02 13:44:18;;;;;;;;;;;;;;;;;;5008538;28;19921;-69
2023/03/02 13:46:43;;;;;;;;;;;;;;;;;;5006312;28;19940;-71
2023/03/02 13:49:09;;;;;;;;;;;;;;;;;;4989533;28;20172;-72
2023/03/02 13:51:34;;;;;;;;;;;;;;;;;;5007589;28;19923;-70
2023/03/02 13:53:59;;;;;;;;;;;;;;;;;;4971276;28;19916;-70
2023/03/02 13:56:25;;;;;;;;;;;;;;;;;;5011366;28;19921;-71
2023/03/02 13:58:50;;;;;;;;;;;;;;;;;;5010511;28;20094;-71
2023/03/02 14:01:15;;;;;;;;;;;;;;;;;;5000710;28;19972;-70
2023/03/02 14:03:41;;;;;;;;;;;;;;;;;;5009296;28;20179;-69
2023/03/02 14:06:06;;;;;;;;;;;;;;;;;;5002788;28;19928;-70
2023/03/02 14:08:31;;;;;;;;;;;;;;;;;;4990525;28;20429;-72
2023/03/02 14:10:57;;;;;;;;;;;;;;;;;;4988948;28;19924;-70
2023/03/02 14:13:23;;;;;;;;;;;;;;;;;;4989595;28;20323;-72
2023/03/02 14:15:48;;;;;;;;;;;;;;;;;;4972158;28;19991;-72
2023/03/02 14:18:14;;;;;;;;;;;;;;;;;;4969612;28;19921;-69
2023/03/02 14:20:41;;;;;;;;;;;;;;;;;;5002528;28;20085;-70
2023/03/02 14:23:09;;;;;;;;;;;;;;;;;;5006905;28;20372;-71
2023/03/02 14:25:34;;;;;;;;;;;;;;;;;;4973434;28;19947;-71
2023/03/02 14:28:02;;;;;;;;;;;;;;;;;;4989247;28;19921;-68
2023/03/02 14:30:28;;;;;;;;;;;;;;;;;;5008953;28;19916;-68
2023/03/02 14:32:55;;;;;;;;;;;;;;;;;;5004033;28;19970;-68
2023/03/02 14:35:21;;;;;;;;;;;;;;;;;;4989148;28;19971;-69
2023/03/02 14:37:48;;;;;;;;;;;;;;;;;;4974331;28;19925;-70
2023/03/02 14:40:14;;;;;;;;;;;;;;;;;;4989915;28;20747;-68
2023/03/02 14:42:39;;;;;;;;;;;;;;;;;;5009579;28;20005;-68
2023/03/02 14:45:04;;;;;;;;;;;;;;;;;;4986893;28;20316;-68
2023/03/02 14:47:30;;;;;;;;;;;;;;;;;;5009104;28;19974;-67
2023/03/02 14:49:59;;;;;;;;;;;;;;;;;;5009904;28;20011;-69
2023/03/02 14:52:25;;;;;;;;;;;;;;;;;;4971938;28;19921;-68
2023/03/02 14:54:53;;;;;;;;;;;;;;;;;;5006842;28;19947;-68
2023/03/02 14:57:18;;;;;;;;;;;;;;;;;;4983986;28;19928;-67
2023/03/02 14:59:44;;;;;;;;;;;;;;;;;;4987484;28;21433;-68
2023/03/02 15:02:11;;;;;;;;;;;;;;;;;;4999767;28;19917;-67
2023/03/02 15:04:37;;;;;;;;;;;;;;;;;;5001228;28;19967;-67
2023/03/02 15:07:02;;;;;;;;;;;;;;;;;;4968634;28;20140;-67
2023/03/02 15:09:30;;;;;;;;;;;;;;;;;;5003191;28;19928;-67
2023/03/02 15:11:58;;;;;;;;;;;;;;;;;;5008414;28;19925;-68
2023/03/02 15:14:23;;;;;;;;;;;;;;;;;;4990480;28;19931;-68
2023/03/02 15:16:48;;;;;;;;;;;;;;;;;;5004175;28;19921;-67
2023/03/02 15:19:19;;;;;;;;;;;;;;;;;;5008700;28;19925;-68
2023/03/02 15:21:51;;;;;;;;;;;;;;;;;;4991204;28;20352;-69
2023/03/02 15:24:16;;;;;;;;;;;;;;;;;;4998832;28;19929;-67
2023/03/02 15:26:42;;;;;;;;;;;;;;;;;;4990050;28;20549;-68
2023/03/02 15:29:07;;;;;;;;;;;;;;;;;;4987352;28;19921;-67
2023/03/02 15:31:32;;;;;;;;;;;;;;;;;;4989009;28;20041;-68
2023/03/02 15:33:58;;;;;;;;;;;;;;;;;;4981413;28;20139;-68
2023/03/02 15:36:24;;;;;;;;;;;;;;;;;;4988014;28;20246;-67
2023/03/02 15:38:49;;;;;;;;;;;;;;;;;;5006280;28;20395;-68
2023/03/02 15:41:15;;;;;;;;;;;;;;;;;;4978833;28;19922;-68
2023/03/02 15:43:40;;;;;;;;;;;;;;;;;;5004824;28;19917;-67
2023/03/02 15:46:08;;;;;;;;;;;;;;;;;;4987175;28;19925;-66
2023/03/02 15:48:36;;;;;;;;;;;;;;;;;;5002740;28;19921;-67
2023/03/02 15:51:04;;;;;;;;;;;;;;;;;;5007842;28;19921;-67
2023/03/02 15:53:32;;;;;;;;;;;;;;;;;;4979902;28;19921;-69
2023/03/02 15:55:58;;;;;;;;;;;;;;;;;;4980691;28;20507;-67
2023/03/02 15:58:26;;;;;;;;;;;;;;;;;;5001095;28;21634;-67
2023/03/02 16:00:55;;;;;;;;;;;;;;;;;;5002394;28;19920;-66
2023/03/02 16:03:23;;;;;;;;;;;;;;;;;;4983516;28;20562;-67
2023/03/02 16:05:48;;;;;;;;;;;;;;;;;;4965774;28;19925;-68
2023/03/02 16:08:13;;;;;;;;;;;;;;;;;;5000921;28;21649;-68
2023/03/02 16:10:41;;;;;;;;;;;;;;;;;;4997465;28;20011;-68
2023/03/02 16:13:09;;;;;;;;;;;;;;;;;;4981029;28;20343;-67
2023/03/02 16:15:34;;;;;;;;;;;;;;;;;;5000138;28;19924;-67
2023/03/02 16:18:00;;;;;;;;;;;;;;;;;;4985641;28;20391;-67
2023/03/02 16:20:25;;;;;;;;;;;;;;;;;;4979356;28;19924;-68
2023/03/02 16:22:50;;;;;;;;;;;;;;;;;;4967988;28;20867;-67
2023/03/02 16:25:16;;;;;;;;;;;;;;;;;;5001046;28;19932;-67
2023/03/02 16:27:45;;;;;;;;;;;;;;;;;;4969149;28;20581;-69
2023/03/02 16:30:13;;;;;;;;;;;;;;;;;;4987109;28;19993;-68
2023/03/02 16:32:42;;;;;;;;;;;;;;;;;;4986055;28;19928;-67
2023/03/02 16:35:07;;;;;;;;;;;;;;;;;;4999370;28;20024;-67
2023/03/02 16:37:35;;;;;;;;;;;;;;;;;;4968674;28;21733;-68
2023/03/02 16:40:00;;;;;;;;;;;;;;;;;;5002864;28;19979;-68
2023/03/02 16:42:27;;;;;;;;;;;;;;;;;;5004036;28;20012;-67
2023/03/02 16:44:57;;;;;;;;;;;;;;;;;;5004857;28;20399;-68